Time;durP1;ratioP1;P1;durP2;ratioP2;P2;SDS_P1;SDS_P2;PMS_P1;PMS_P2;Temp;Humidity;BMP_temperature;BMP_pressure;BME280_temperature;BME280_humidity;BME280_pressure;Samples;Min_cycle;Max_cycle;Signal;HPM_P1;HPM_P2
2023/07/01 00:00:40;;;;;;;0.20;0.20;;;17.70;94.30;;;;;;5032630;28;20056;-80
2023/07/01 00:03:07;;;;;;;0.20;0.20;;;17.70;94.20;;;;;;5050379;28;20052;-79
2023/07/01 00:05:33;;;;;;;0.20;0.20;;;17.70;94.10;;;;;;5032384;28;20127;-80
2023/07/01 00:07:58;;;;;;;0.20;0.20;;;17.70;94.20;;;;;;5032606;28;20635;-79
2023/07/01 00:10:25;;;;;;;0.20;0.20;;;17.70;94.10;;;;;;5051669;28;20045;-80
2023/07/01 00:12:52;;;;;;;0.20;0.20;;;17.70;94.10;;;;;;5047769;28;20045;-79
2023/07/01 00:15:18;;;;;;;0.20;0.20;;;17.70;94.10;;;;;;5049373;28;20036;-78
2023/07/01 00:17:44;;;;;;;0.20;0.20;;;17.70;94.10;;;;;;5033341;28;20072;-80
2023/07/01 00:20:10;;;;;;;0.20;0.20;;;17.70;94.00;;;;;;5040568;28;20405;-81
2023/07/01 00:22:36;;;;;;;0.20;0.20;;;17.70;94.00;;;;;;5032452;28;20044;-79
2023/07/01 00:25:02;;;;;;;0.20;0.20;;;17.60;94.00;;;;;;5033386;28;20045;-80
2023/07/01 00:27:28;;;;;;;0.20;0.20;;;17.70;93.90;;;;;;5048704;28;20036;-78
2023/07/01 00:29:54;;;;;;;0.20;0.20;;;17.60;93.90;;;;;;5029986;28;20502;-79
2023/07/01 00:32:20;;;;;;;0.40;0.40;;;17.70;93.90;;;;;;4998454;28;1154273;-82
2023/07/01 00:34:45;;;;;;;0.20;0.20;;;17.70;93.90;;;;;;5046407;28;20094;-78
2023/07/01 00:37:11;;;;;;;0.20;0.20;;;17.70;93.90;;;;;;5044031;28;20171;-79
2023/07/01 00:39:37;;;;;;;0.20;0.20;;;17.70;93.90;;;;;;5049901;28;20055;-79
2023/07/01 00:42:03;;;;;;;0.20;0.20;;;17.70;93.90;;;;;;5047376;28;20041;-79
2023/07/01 00:44:28;;;;;;;0.20;0.20;;;17.70;93.90;;;;;;5030736;28;20045;-79
2023/07/01 00:46:54;;;;;;;0.20;0.20;;;17.70;94.00;;;;;;5064137;28;20049;-78
2023/07/01 00:49:21;;;;;;;0.20;0.20;;;17.70;94.10;;;;;;5050778;28;20404;-79
2023/07/01 00:51:47;;;;;;;0.20;0.20;;;17.70;94.20;;;;;;5049630;28;20044;-79
2023/07/01 00:54:12;;;;;;;0.20;0.20;;;17.70;94.10;;;;;;5048666;28;20052;-79
2023/07/01 00:56:38;;;;;;;0.20;0.20;;;17.70;94.20;;;;;;5050723;28;20044;-80
2023/07/01 00:59:04;;;;;;;0.20;0.20;;;17.70;94.30;;;;;;5050115;28;20093;-79
2023/07/01 01:01:34;;;;;;;0.20;0.20;;;17.70;94.30;;;;;;5051375;28;20401;-78
2023/07/01 01:04:19;;;;;;;0.20;0.20;;;17.70;94.40;;;;;;5051974;28;20072;-80
2023/07/01 01:06:58;;;;;;;0.20;0.20;;;17.70;94.50;;;;;;5042147;28;20049;-80
2023/07/01 01:09:35;;;;;;;0.10;0.10;;;17.70;94.60;;;;;;5046723;28;20045;-79
2023/07/01 01:12:04;;;;;;;0.20;0.20;;;17.70;94.60;;;;;;5040919;28;20057;-79
2023/07/01 01:14:33;;;;;;;0.10;0.10;;;17.70;94.70;;;;;;5047774;28;20077;-78
2023/07/01 01:17:04;;;;;;;0.17;0.17;;;17.70;94.80;;;;;;5040385;28;20404;-79
2023/07/01 01:19:52;;;;;;;0.20;0.20;;;17.70;94.80;;;;;;5061669;28;20051;-79
2023/07/01 01:22:25;;;;;;;0.20;0.20;;;17.70;94.90;;;;;;5048580;28;20047;-79
2023/07/01 01:24:57;;;;;;;0.20;0.20;;;17.70;94.90;;;;;;5032679;28;20045;-80
2023/07/01 01:27:35;;;;;;;0.20;0.20;;;17.70;95.00;;;;;;5048242;28;20550;-80
2023/07/01 01:30:01;;;;;;;0.20;0.20;;;17.70;95.00;;;;;;5050486;28;20041;-79
2023/07/01 01:32:28;;;;;;;0.10;0.10;;;17.70;95.10;;;;;;5036526;28;20058;-80
2023/07/01 01:34:54;;;;;;;0.20;0.20;;;17.70;95.20;;;;;;5028188;28;20047;-80
2023/07/01 01:37:33;;;;;;;0.20;0.20;;;17.70;95.30;;;;;;5029873;28;20041;-80
2023/07/01 01:40:09;;;;;;;0.20;0.20;;;17.70;95.40;;;;;;5045825;28;20448;-79
2023/07/01 01:42:37;;;;;;;0.20;0.20;;;17.70;95.50;;;;;;5043524;28;20072;-82
2023/07/01 01:45:06;;;;;;;0.20;0.20;;;17.70;95.70;;;;;;5043934;28;20033;-80
2023/07/01 01:47:32;;;;;;;0.20;0.20;;;17.60;95.90;;;;;;5050445;28;20119;-80
2023/07/01 01:50:04;;;;;;;0.20;0.20;;;17.60;96.20;;;;;;5031614;28;20048;-80
2023/07/01 01:52:32;;;;;;;0.20;0.20;;;17.60;96.90;;;;;;5031400;28;20135;-77
2023/07/01 01:54:58;;;;;;;0.20;0.20;;;17.50;97.00;;;;;;5032468;28;20049;-77
2023/07/01 01:57:25;;;;;;;0.17;0.17;;;17.40;97.50;;;;;;5029358;28;20049;-78
2023/07/01 01:59:51;;;;;;;0.20;0.20;;;17.40;97.80;;;;;;5032544;28;20045;-78
2023/07/01 02:02:16;;;;;;;0.20;0.20;;;17.30;98.60;;;;;;5029539;28;20057;-75
2023/07/01 02:04:42;;;;;;;0.20;0.20;;;17.20;98.80;;;;;;5048567;28;20041;-75
2023/07/01 02:07:08;;;;;;;0.10;0.10;;;17.20;99.10;;;;;;5040872;28;20128;-75
2023/07/01 02:09:34;;;;;;;0.20;0.20;;;17.10;99.40;;;;;;5025490;28;20045;-77
2023/07/01 02:11:59;;;;;;;0.20;0.20;;;17.10;99.90;;;;;;5048835;28;20048;-76
2023/07/01 02:14:25;;;;;;;0.20;0.20;;;17.00;99.90;;;;;;5030308;28;20197;-76
2023/07/01 02:16:52;;;;;;;0.20;0.20;;;16.90;99.90;;;;;;5049164;28;20448;-75
2023/07/01 02:19:18;;;;;;;0.20;0.20;;;16.80;99.90;;;;;;5030327;28;20041;-76
2023/07/01 02:21:43;;;;;;;0.30;0.30;;;16.80;99.90;;;;;;5049253;28;20038;-76
2023/07/01 02:24:09;;;;;;;0.20;0.20;;;16.70;99.90;;;;;;5028650;28;20178;-76
2023/07/01 02:26:35;;;;;;;0.20;0.20;;;16.70;99.90;;;;;;5039273;28;20099;-77
2023/07/01 02:29:01;;;;;;;0.20;0.20;;;16.60;99.90;;;;;;5022557;28;20056;-78
2023/07/01 02:31:27;;;;;;;0.20;0.20;;;16.60;99.90;;;;;;5018779;28;20102;-76
2023/07/01 02:34:00;;;;;;;0.20;0.20;;;16.60;99.90;;;;;;5033712;28;20408;-77
2023/07/01 02:36:25;;;;;;;0.15;0.15;;;16.50;99.90;;;;;;5041024;28;20037;-79
2023/07/01 02:38:51;;;;;;;0.10;0.10;;;16.50;99.90;;;;;;5037923;28;20401;-78
2023/07/01 02:41:17;;;;;;;0.20;0.20;;;16.50;99.90;;;;;;5038055;28;20045;-78
2023/07/01 02:43:42;;;;;;;0.20;0.20;;;16.50;99.90;;;;;;5032761;28;20060;-77
2023/07/01 02:46:08;;;;;;;0.20;0.20;;;16.50;99.90;;;;;;5039429;28;20545;-77
2023/07/01 02:48:34;;;;;;;0.20;0.20;;;16.50;99.90;;;;;;5039869;28;20045;-76
2023/07/01 02:50:59;;;;;;;0.20;0.20;;;16.50;99.90;;;;;;5042456;28;20045;-77
2023/07/01 02:53:25;;;;;;;0.20;0.20;;;16.50;99.90;;;;;;5043880;28;20105;-75
2023/07/01 02:55:51;;;;;;;0.20;0.20;;;16.50;99.90;;;;;;5049353;28;20125;-77
2023/07/01 02:58:19;;;;;;;0.20;0.20;;;16.60;99.90;;;;;;5046384;28;20043;-77
2023/07/01 03:00:45;;;;;;;0.20;0.20;;;16.60;99.90;;;;;;5045742;28;20522;-77
2023/07/01 03:03:11;;;;;;;0.20;0.20;;;16.60;99.90;;;;;;5048017;28;20449;-77
2023/07/01 03:05:38;;;;;;;0.20;0.20;;;16.60;99.90;;;;;;5048627;28;20134;-76
2023/07/01 03:08:05;;;;;;;0.20;0.20;;;16.70;99.90;;;;;;5045106;28;20493;-77
2023/07/01 03:10:30;;;;;;;0.20;0.20;;;16.70;99.90;;;;;;5049519;28;20051;-76
2023/07/01 03:12:56;;;;;;;0.20;0.20;;;16.70;99.90;;;;;;5045569;28;20152;-77
2023/07/01 03:15:22;;;;;;;0.10;0.10;;;16.70;99.90;;;;;;5046731;28;20424;-78
2023/07/01 03:17:48;;;;;;;0.20;0.20;;;16.80;99.90;;;;;;5047674;28;20102;-77
2023/07/01 03:20:22;;;;;;;0.20;0.20;;;16.80;99.90;;;;;;5047853;28;20049;-78
2023/07/01 03:22:56;;;;;;;0.20;0.20;;;16.80;99.90;;;;;;5047463;28;20045;-78
2023/07/01 03:25:23;;;;;;;0.20;0.20;;;16.80;99.90;;;;;;5048284;28;20053;-78
2023/07/01 03:27:49;;;;;;;0.20;0.20;;;16.80;99.90;;;;;;5045212;28;20575;-78
2023/07/01 03:30:17;;;;;;;0.20;0.20;;;16.80;99.90;;;;;;5046813;28;20124;-77
2023/07/01 03:32:44;;;;;;;0.10;0.10;;;16.70;99.90;;;;;;5044995;28;20580;-78
2023/07/01 03:35:11;;;;;;;0.10;0.10;;;16.60;99.90;;;;;;5030472;28;20087;-79
2023/07/01 03:37:38;;;;;;;0.20;0.20;;;16.70;99.90;;;;;;5028559;28;20045;-77
2023/07/01 03:40:05;;;;;;;0.20;0.20;;;16.60;99.90;;;;;;5048108;28;20438;-78
2023/07/01 03:42:31;;;;;;;0.20;0.20;;;16.60;99.90;;;;;;5046486;28;20053;-77
2023/07/01 03:44:56;;;;;;;0.20;0.20;;;16.60;99.90;;;;;;5046171;28;20043;-77
2023/07/01 03:47:24;;;;;;;0.10;0.10;;;16.60;99.90;;;;;;5048376;28;20481;-78
2023/07/01 03:49:49;;;;;;;0.20;0.20;;;16.60;99.90;;;;;;5046904;28;20051;-80
2023/07/01 03:52:15;;;;;;;0.20;0.20;;;16.50;99.90;;;;;;5047419;28;20041;-77
2023/07/01 03:54:41;;;;;;;0.20;0.20;;;16.50;99.90;;;;;;5043207;28;20044;-79
2023/07/01 03:57:06;;;;;;;0.20;0.20;;;16.50;99.90;;;;;;5042553;28;20130;-79
2023/07/01 03:59:32;;;;;;;0.20;0.20;;;16.50;99.90;;;;;;5041827;28;20073;-77
2023/07/01 04:01:59;;;;;;;0.20;0.20;;;16.50;99.90;;;;;;5045485;28;20037;-78
2023/07/01 04:04:25;;;;;;;0.20;0.20;;;16.50;99.90;;;;;;5048353;28;20040;-78
2023/07/01 04:06:52;;;;;;;0.10;0.10;;;16.50;99.90;;;;;;5046510;28;20443;-79
2023/07/01 04:09:18;;;;;;;0.20;0.20;;;16.50;99.90;;;;;;5050778;28;20083;-80
2023/07/01 04:11:44;;;;;;;0.10;0.10;;;16.50;99.90;;;;;;5050413;28;20484;-79
2023/07/01 04:14:10;;;;;;;0.20;0.20;;;16.40;99.90;;;;;;5049221;28;20063;-79
2023/07/01 04:16:36;;;;;;;0.20;0.20;;;16.40;99.90;;;;;;5053277;28;20098;-79
2023/07/01 04:19:01;;;;;;;0.17;0.17;;;16.50;99.90;;;;;;5049293;28;20040;-78
2023/07/01 04:21:27;;;;;;;0.20;0.20;;;16.40;99.90;;;;;;5050804;28;20045;-77
2023/07/01 04:23:53;;;;;;;0.20;0.20;;;16.40;99.90;;;;;;5049641;28;20096;-79
2023/07/01 04:26:18;;;;;;;0.20;0.20;;;16.50;99.90;;;;;;5050958;28;20536;-79
2023/07/01 04:28:44;;;;;;;0.13;0.13;;;16.50;99.90;;;;;;5051211;28;20040;-79
2023/07/01 04:31:10;;;;;;;0.20;0.20;;;16.50;99.90;;;;;;5051752;28;20049;-80
2023/07/01 04:33:35;;;;;;;0.20;0.20;;;16.50;99.90;;;;;;5029603;28;20056;-79
2023/07/01 04:36:01;;;;;;;0.20;0.20;;;16.50;99.90;;;;;;5048436;28;20052;-78
2023/07/01 04:38:27;;;;;;;0.20;0.20;;;16.50;99.90;;;;;;5022047;28;20037;-79
2023/07/01 04:40:53;;;;;;;0.20;0.20;;;16.50;99.90;;;;;;5052985;28;20037;-78
2023/07/01 04:43:20;;;;;;;0.20;0.20;;;16.50;99.90;;;;;;5033594;28;20566;-78
2023/07/01 04:45:46;;;;;;;0.20;0.20;;;16.60;99.90;;;;;;5052374;28;20481;-79
2023/07/01 04:48:11;;;;;;;0.20;0.20;;;16.50;99.90;;;;;;5032851;28;20049;-79
2023/07/01 04:50:37;;;;;;;0.20;0.20;;;16.60;99.90;;;;;;5031926;28;20507;-78
2023/07/01 04:53:03;;;;;;;0.20;0.20;;;16.50;99.90;;;;;;5032821;28;20045;-79
2023/07/01 04:55:28;;;;;;;0.20;0.20;;;16.60;99.90;;;;;;5051677;28;20052;-79
2023/07/01 04:57:54;;;;;;;0.20;0.20;;;16.60;99.90;;;;;;5032692;28;20527;-78
2023/07/01 05:00:21;;;;;;;0.20;0.20;;;16.60;99.90;;;;;;5026478;28;20477;-78
2023/07/01 05:02:47;;;;;;;0.20;0.20;;;16.60;99.90;;;;;;5028413;28;20049;-79
2023/07/01 05:05:12;;;;;;;0.20;0.20;;;16.60;99.90;;;;;;5046873;28;20041;-78
2023/07/01 05:07:38;;;;;;;0.10;0.10;;;16.70;99.90;;;;;;5031919;28;20124;-78
2023/07/01 05:10:04;;;;;;;0.20;0.20;;;16.70;99.90;;;;;;5030869;28;20106;-78
2023/07/01 05:12:30;;;;;;;0.20;0.20;;;16.70;99.90;;;;;;5032973;28;20037;-78
2023/07/01 05:14:55;;;;;;;0.20;0.20;;;16.70;99.90;;;;;;5033481;28;20116;-79
2023/07/01 05:17:21;;;;;;;0.10;0.10;;;16.70;99.90;;;;;;5051950;28;20231;-80
2023/07/01 05:19:47;;;;;;;0.20;0.20;;;16.80;99.90;;;;;;5048325;28;20025;-79
2023/07/01 05:22:13;;;;;;;0.20;0.20;;;16.80;99.90;;;;;;5030818;28;20045;-79
2023/07/01 05:24:38;;;;;;;0.20;0.20;;;16.80;99.90;;;;;;5050069;28;20049;-79
2023/07/01 05:27:04;;;;;;;0.10;0.10;;;16.80;99.90;;;;;;5029611;28;20117;-80
2023/07/01 05:29:30;;;;;;;0.20;0.20;;;16.80;99.90;;;;;;5031595;28;20123;-79
2023/07/01 05:31:56;;;;;;;0.10;0.10;;;16.90;99.90;;;;;;5038993;28;20471;-78
2023/07/01 05:34:23;;;;;;;0.20;0.20;;;16.80;99.90;;;;;;5044967;28;20056;-78
2023/07/01 05:36:49;;;;;;;0.20;0.20;;;16.90;99.90;;;;;;5044818;28;20473;-78
2023/07/01 05:39:15;;;;;;;0.20;0.20;;;16.90;99.90;;;;;;5048557;28;20044;-79
2023/07/01 05:41:41;;;;;;;0.20;0.20;;;16.90;99.90;;;;;;5046957;28;20080;-78
2023/07/01 05:44:07;;;;;;;0.20;0.20;;;16.90;99.90;;;;;;5043625;28;20063;-79
2023/07/01 05:46:32;;;;;;;0.20;0.20;;;16.90;99.90;;;;;;5048686;28;20090;-81
2023/07/01 05:48:58;;;;;;;0.20;0.20;;;17.00;99.90;;;;;;5047238;28;20556;-79
2023/07/01 05:51:24;;;;;;;0.15;0.15;;;17.00;99.90;;;;;;5049086;28;20126;-78
2023/07/01 05:53:50;;;;;;;0.17;0.17;;;17.00;99.90;;;;;;5050046;28;20049;-80
2023/07/01 05:56:16;;;;;;;0.20;0.20;;;17.00;99.90;;;;;;5047086;28;20048;-79
2023/07/01 05:58:42;;;;;;;0.20;0.20;;;17.00;99.90;;;;;;5047705;28;20049;-78
2023/07/01 06:01:08;;;;;;;0.20;0.20;;;17.10;99.90;;;;;;5048404;28;20032;-79
2023/07/01 06:03:34;;;;;;;0.20;0.20;;;17.10;99.90;;;;;;5047343;28;20131;-80
2023/07/01 06:05:59;;;;;;;0.20;0.20;;;17.10;99.90;;;;;;5046439;28;20108;-79
2023/07/01 06:08:25;;;;;;;0.20;0.20;;;17.10;99.90;;;;;;5045315;28;20076;-79
2023/07/01 06:10:51;;;;;;;0.20;0.20;;;17.10;99.90;;;;;;5041883;28;20048;-78
2023/07/01 06:13:17;;;;;;;0.20;0.20;;;17.10;99.90;;;;;;5047741;28;20033;-78
2023/07/01 06:15:43;;;;;;;0.20;0.20;;;17.20;99.90;;;;;;5048155;28;20072;-78
2023/07/01 06:18:08;;;;;;;0.20;0.20;;;17.20;99.90;;;;;;5047332;28;20033;-78
2023/07/01 06:20:34;;;;;;;0.20;0.20;;;17.20;99.90;;;;;;5048976;28;20056;-78
2023/07/01 06:22:59;;;;;;;0.20;0.20;;;17.20;99.90;;;;;;5048123;28;20037;-79
2023/07/01 06:25:25;;;;;;;0.20;0.20;;;17.20;99.90;;;;;;5049465;28;20081;-79
2023/07/01 06:27:51;;;;;;;0.20;0.20;;;17.20;99.90;;;;;;5048614;28;20041;-76
2023/07/01 06:30:16;;;;;;;0.20;0.20;;;17.20;99.90;;;;;;5047532;28;20183;-75
2023/07/01 06:32:42;;;;;;;0.20;0.20;;;17.10;99.90;;;;;;5048827;28;20063;-75
2023/07/01 06:35:08;;;;;;;0.20;0.20;;;17.10;99.90;;;;;;5047694;28;20052;-76
2023/07/01 06:37:34;;;;;;;0.20;0.20;;;17.10;99.90;;;;;;5031016;28;20048;-75
2023/07/01 06:39:59;;;;;;;0.20;0.20;;;17.10;99.90;;;;;;5046246;28;20388;-76
2023/07/01 06:42:25;;;;;;;0.20;0.20;;;17.00;99.90;;;;;;5048728;28;20041;-75
2023/07/01 06:44:50;;;;;;;0.20;0.20;;;17.00;99.90;;;;;;5031104;28;20110;-75
2023/07/01 06:47:16;;;;;;;0.20;0.20;;;17.00;99.90;;;;;;5031385;28;20627;-78
2023/07/01 06:49:42;;;;;;;0.20;0.20;;;17.00;99.90;;;;;;5027146;28;20927;-74
2023/07/01 06:52:07;;;;;;;0.20;0.20;;;17.00;99.90;;;;;;5048397;28;20522;-76
2023/07/01 06:54:33;;;;;;;0.20;0.20;;;17.00;99.90;;;;;;5044839;28;20037;-79
2023/07/01 06:56:59;;;;;;;0.20;0.20;;;17.00;99.90;;;;;;5031287;28;20099;-80
2023/07/01 06:59:24;;;;;;;0.20;0.20;;;17.00;99.90;;;;;;5024991;28;20049;-80
2023/07/01 07:01:50;;;;;;;0.17;0.17;;;17.00;99.90;;;;;;5017295;28;20132;-79
2023/07/01 07:04:16;;;;;;;0.20;0.20;;;17.00;99.90;;;;;;5031572;28;20129;-80
2023/07/01 07:06:42;;;;;;;0.20;0.20;;;17.00;99.90;;;;;;5021760;28;20390;-80
2023/07/01 07:09:07;;;;;;;0.20;0.20;;;17.00;99.90;;;;;;5022657;28;20049;-80
2023/07/01 07:11:34;;;;;;;0.20;0.20;;;17.00;99.90;;;;;;5031280;28;20041;-81
2023/07/01 07:13:59;;;;;;;0.20;0.20;;;17.00;99.90;;;;;;5015909;28;20511;-81
2023/07/01 07:16:27;;;;;;;0.20;0.20;;;17.00;99.90;;;;;;5040873;28;20046;-80
2023/07/01 07:18:53;;;;;;;0.20;0.20;;;17.00;99.90;;;;;;5022900;28;20045;-80
2023/07/01 07:21:18;;;;;;;0.20;0.20;;;17.00;99.90;;;;;;5030051;28;20107;-81
2023/07/01 07:23:44;;;;;;;0.20;0.20;;;17.00;99.90;;;;;;5022779;28;20563;-81
2023/07/01 07:26:09;;;;;;;0.20;0.20;;;17.00;99.90;;;;;;5023912;28;20613;-81
2023/07/01 07:28:38;;;;;;;0.20;0.20;;;17.00;99.90;;;;;;5046886;28;20056;-82
2023/07/01 07:31:04;;;;;;;0.20;0.20;;;17.00;99.90;;;;;;5029684;28;20088;-81
2023/07/01 07:33:29;;;;;;;0.20;0.20;;;17.00;99.90;;;;;;5041964;28;20057;-80
2023/07/01 07:35:55;;;;;;;0.10;0.10;;;17.10;99.90;;;;;;5021896;28;20670;-81
2023/07/01 07:38:21;;;;;;;0.20;0.20;;;17.10;99.90;;;;;;5040228;28;20037;-81
2023/07/01 07:40:46;;;;;;;0.20;0.20;;;17.10;99.90;;;;;;5046250;28;20589;-81
2023/07/01 07:43:12;;;;;;;0.20;0.20;;;17.10;99.90;;;;;;5030874;28;20041;-81
2023/07/01 07:45:38;;;;;;;0.20;0.20;;;17.20;99.90;;;;;;5030201;28;20044;-80
2023/07/01 07:48:05;;;;;;;0.20;0.20;;;17.20;99.90;;;;;;5048933;28;20041;-81
2023/07/01 07:50:31;;;;;;;0.10;0.10;;;17.20;99.90;;;;;;5050060;28;20045;-81
2023/07/01 07:52:57;;;;;;;0.20;0.20;;;17.20;99.90;;;;;;5046940;28;20045;-82
2023/07/01 07:55:23;;;;;;;0.20;0.20;;;17.20;99.90;;;;;;5031466;28;20305;-79
2023/07/01 07:57:48;;;;;;;0.20;0.20;;;17.20;99.90;;;;;;5032823;28;20128;-80
2023/07/01 08:00:14;;;;;;;0.20;0.20;;;17.30;99.90;;;;;;5049407;28;20107;-80
2023/07/01 08:02:44;;;;;;;0.20;0.20;;;17.30;99.90;;;;;;5052558;28;20667;-81
2023/07/01 08:05:14;;;;;;;0.10;0.10;;;17.30;99.90;;;;;;5053095;28;20400;-79
2023/07/01 08:07:40;;;;;;;0.20;0.20;;;17.40;99.90;;;;;;5053443;28;20569;-81
2023/07/01 08:10:06;;;;;;;0.20;0.20;;;17.40;99.90;;;;;;5032000;28;20052;-80
2023/07/01 08:12:32;;;;;;;0.20;0.20;;;17.50;99.90;;;;;;5032409;28;20045;-80
2023/07/01 08:14:58;;;;;;;0.20;0.20;;;17.50;99.90;;;;;;5053023;28;20041;-80
2023/07/01 08:17:23;;;;;;;0.20;0.20;;;17.60;99.90;;;;;;5031280;28;20067;-81
2023/07/01 08:19:49;;;;;;;0.20;0.20;;;17.60;99.90;;;;;;5034647;28;20315;-81
2023/07/01 08:22:14;;;;;;;0.20;0.20;;;17.60;99.90;;;;;;5027551;28;20049;-81
2023/07/01 08:24:40;;;;;;;0.20;0.20;;;17.70;99.90;;;;;;5049981;28;20130;-81
2023/07/01 08:27:06;;;;;;;0.20;0.20;;;17.70;99.90;;;;;;5033186;28;20528;-81
2023/07/01 08:29:31;;;;;;;0.20;0.20;;;17.70;99.90;;;;;;5048471;28;20520;-81
2023/07/01 08:31:59;;;;;;;0.20;0.20;;;17.70;99.90;;;;;;5048176;28;20049;-81
2023/07/01 08:34:24;;;;;;;0.20;0.20;;;17.70;99.90;;;;;;5034003;28;20045;-82
2023/07/01 08:36:50;;;;;;;0.20;0.20;;;17.70;99.90;;;;;;5032688;28;20052;-81
2023/07/01 08:39:16;;;;;;;0.20;0.20;;;17.70;99.90;;;;;;5024309;28;20135;-81
2023/07/01 08:41:59;;;;;;;0.20;0.20;;;17.80;99.90;;;;;;5031805;28;20208;-83
2023/07/01 08:44:25;;;;;;;0.20;0.20;;;17.80;99.90;;;;;;5030574;28;20053;-80
2023/07/01 08:46:55;;;;;;;0.20;0.20;;;17.80;99.90;;;;;;5050575;28;20497;-82
2023/07/01 08:49:24;;;;;;;0.20;0.20;;;17.80;99.90;;;;;;5029755;28;20941;-82
2023/07/01 08:52:03;;;;;;;0.20;0.20;;;17.80;99.90;;;;;;5050717;28;20041;-81
2023/07/01 08:54:30;;;;;;;0.20;0.20;;;17.90;99.90;;;;;;5036135;28;20041;-82
2023/07/01 08:56:55;;;;;;;0.20;0.20;;;17.90;99.90;;;;;;5031992;28;20402;-82
2023/07/01 08:59:21;;;;;;;0.17;0.17;;;18.00;99.90;;;;;;5051031;28;20060;-82
2023/07/01 09:01:48;;;;;;;0.20;0.20;;;18.00;99.90;;;;;;5044559;28;20660;-83
2023/07/01 09:04:13;;;;;;;0.20;0.20;;;18.10;99.90;;;;;;5048705;28;20045;-83
2023/07/01 09:06:39;;;;;;;0.20;0.20;;;18.10;99.90;;;;;;5048477;28;20041;-85
2023/07/01 09:09:05;;;;;;;0.20;0.20;;;18.10;99.90;;;;;;5029915;28;20041;-82
2023/07/01 09:11:31;;;;;;;0.20;0.20;;;18.20;99.90;;;;;;5030157;28;20072;-83
2023/07/01 09:13:57;;;;;;;0.20;0.20;;;18.20;99.90;;;;;;5032465;28;20519;-81
2023/07/01 09:16:36;;;;;;;0.15;0.15;;;18.20;99.90;;;;;;5050427;28;20033;-82
2023/07/01 09:19:06;;;;;;;0.10;0.10;;;18.30;99.90;;;;;;5050706;28;20374;-82
2023/07/01 09:21:32;;;;;;;0.20;0.20;;;18.30;99.90;;;;;;5032455;28;20079;-80
2023/07/01 09:24:02;;;;;;;0.20;0.20;;;18.30;99.90;;;;;;5031132;28;20053;-81
2023/07/01 09:26:31;;;;;;;0.20;0.20;;;18.30;99.90;;;;;;5032653;28;20044;-82
2023/07/01 09:28:58;;;;;;;0.20;0.20;;;18.40;99.90;;;;;;5030182;28;20047;-82
2023/07/01 09:31:25;;;;;;;0.20;0.20;;;18.40;99.90;;;;;;5033114;28;20416;-81
2023/07/01 09:34:06;;;;;;;0.10;0.10;;;18.40;99.90;;;;;;5044852;28;20048;-81
2023/07/01 09:36:32;;;;;;;0.20;0.20;;;18.50;99.90;;;;;;5049824;28;20467;-82
2023/07/01 09:39:00;;;;;;;0.20;0.20;;;18.50;99.90;;;;;;5044199;28;20065;-82
2023/07/01 09:41:26;;;;;;;0.20;0.20;;;18.60;99.90;;;;;;5049261;28;20041;-81
2023/07/01 09:44:00;;;;;;;0.20;0.20;;;18.60;99.90;;;;;;5050100;28;20048;-81
2023/07/01 09:46:43;;;;;;;0.20;0.20;;;18.70;99.90;;;;;;5048240;28;20045;-82
2023/07/01 09:49:10;;;;;;;0.20;0.20;;;18.70;99.90;;;;;;5049458;28;20059;-82
2023/07/01 09:51:46;;;;;;;0.20;0.20;;;18.70;99.90;;;;;;5048788;28;20044;-82
2023/07/01 09:54:28;;;;;;;0.20;0.20;;;18.70;99.90;;;;;;5039857;28;20512;-81
2023/07/01 09:56:56;;;;;;;0.20;0.20;;;18.70;99.90;;;;;;5046098;28;20374;-81
2023/07/01 09:59:22;;;;;;;0.20;0.20;;;18.70;99.90;;;;;;5049905;28;20136;-81
2023/07/01 10:01:50;;;;;;;0.20;0.20;;;18.70;99.90;;;;;;5046206;28;20113;-81
2023/07/01 10:04:18;;;;;;;0.20;0.20;;;18.80;99.90;;;;;;5043702;28;20049;-81
2023/07/01 10:06:44;;;;;;;0.20;0.20;;;18.80;99.90;;;;;;5047811;28;20055;-83
2023/07/01 10:09:10;;;;;;;0.20;0.20;;;18.80;99.90;;;;;;5048415;28;20040;-82
2023/07/01 10:11:37;;;;;;;0.20;0.20;;;18.90;99.90;;;;;;5049242;28;20041;-82
2023/07/01 10:14:05;;;;;;;0.20;0.20;;;18.90;99.90;;;;;;5047274;28;20447;-80
2023/07/01 10:16:32;;;;;;;0.10;0.10;;;18.90;99.90;;;;;;5045521;28;20041;-81
2023/07/01 10:18:59;;;;;;;0.20;0.20;;;18.90;99.90;;;;;;5048871;28;20051;-78
2023/07/01 10:21:31;;;;;;;0.20;0.20;;;19.00;99.90;;;;;;5044598;28;20057;-77
2023/07/01 10:24:00;;;;;;;0.20;0.20;;;19.00;99.90;;;;;;5049272;28;20099;-77
2023/07/01 10:26:34;;;;;;;0.20;0.20;;;19.00;99.90;;;;;;5048630;28;20087;-77
2023/07/01 10:29:18;;;;;;;0.20;0.20;;;19.00;99.90;;;;;;5046107;28;20053;-78
2023/07/01 10:32:11;;;;;;;0.20;0.20;;;19.10;99.90;;;;;;5048398;28;20064;-78
2023/07/01 10:34:55;;;;;;;0.20;0.20;;;19.10;99.90;;;;;;5045679;28;20049;-76
2023/07/01 10:37:22;;;;;;;0.20;0.20;;;19.20;99.90;;;;;;5040130;28;20052;-77
2023/07/01 10:39:48;;;;;;;0.20;0.20;;;19.20;99.90;;;;;;5024769;28;20480;-76
2023/07/01 10:42:31;;;;;;;0.20;0.20;;;19.30;99.90;;;;;;5024214;28;21689;-78
2023/07/01 10:45:14;;;;;;;0.20;0.20;;;19.40;99.90;;;;;;5047664;28;20041;-79
2023/07/01 10:48:03;;;;;;;0.20;0.20;;;19.40;99.90;;;;;;5028365;28;20102;-78
2023/07/01 10:50:29;;;;;;;0.20;0.20;;;19.50;99.90;;;;;;5049292;28;20041;-79
2023/07/01 10:52:58;;;;;;;0.20;0.20;;;19.50;99.90;;;;;;5031716;28;20045;-78
2023/07/01 10:55:39;;;;;;;0.20;0.20;;;19.60;99.90;;;;;;5046729;28;20381;-78
2023/07/01 10:58:33;;;;;;;0.20;0.20;;;19.50;99.90;;;;;;5026629;28;20135;-79
2023/07/01 11:00:59;;;;;;;0.20;0.20;;;19.50;99.90;;;;;;5050006;28;20552;-78
2023/07/01 11:03:34;;;;;;;0.20;0.20;;;19.50;99.90;;;;;;5031111;28;20128;-78
2023/07/01 11:06:07;;;;;;;0.20;0.20;;;19.40;99.90;;;;;;5028363;28;20053;-78
2023/07/01 11:08:42;;;;;;;0.20;0.20;;;19.40;99.90;;;;;;5031891;28;20125;-78
2023/07/01 11:11:08;;;;;;;0.20;0.20;;;19.40;99.90;;;;;;5031844;28;20098;-78
2023/07/01 11:13:37;;;;;;;0.20;0.20;;;19.30;99.90;;;;;;5027216;28;20057;-77
2023/07/01 11:16:10;;;;;;;0.20;0.20;;;19.20;99.90;;;;;;5049744;28;20041;-78
2023/07/01 11:18:44;;;;;;;0.20;0.20;;;19.10;99.90;;;;;;5053650;28;20041;-78
2023/07/01 11:21:12;;;;;;;0.20;0.20;;;19.10;99.90;;;;;;5034292;28;20045;-78
2023/07/01 11:23:42;;;;;;;0.20;0.20;;;19.10;99.90;;;;;;5053464;28;20048;-80
2023/07/01 11:26:08;;;;;;;0.20;0.20;;;19.00;99.90;;;;;;5035661;28;20052;-80
2023/07/01 11:28:37;;;;;;;0.20;0.20;;;19.10;99.90;;;;;;5047371;28;20056;-82
2023/07/01 11:31:31;;;;;;;0.20;0.20;;;19.20;99.90;;;;;;5053411;28;20045;-81
2023/07/01 11:33:58;;;;;;;0.20;0.20;;;19.20;99.90;;;;;;5030502;28;20060;-82
2023/07/01 11:36:38;;;;;;;0.20;0.20;;;19.30;99.90;;;;;;5035668;28;20052;-80
2023/07/01 11:39:08;;;;;;;0.20;0.20;;;19.40;99.90;;;;;;5037060;28;20042;-81
2023/07/01 11:41:35;;;;;;;0.20;0.20;;;19.40;99.90;;;;;;5016817;28;20041;-81
2023/07/01 11:44:02;;;;;;;0.20;0.20;;;19.40;99.90;;;;;;5029514;28;20071;-81
2023/07/01 11:46:46;;;;;;;0.20;0.20;;;19.40;99.90;;;;;;5034262;28;20037;-81
2023/07/01 11:49:31;;;;;;;0.20;0.20;;;19.50;99.90;;;;;;5051163;28;20044;-81
2023/07/01 11:52:01;;;;;;;0.20;0.20;;;19.50;99.90;;;;;;5051220;28;20045;-81
2023/07/01 11:54:39;;;;;;;0.20;0.20;;;19.50;99.90;;;;;;5033196;28;20094;-83
2023/07/01 11:57:17;;;;;;;0.20;0.20;;;19.60;99.90;;;;;;5052781;28;20044;-81
2023/07/01 11:59:48;;;;;;;0.20;0.20;;;19.60;99.90;;;;;;5051012;28;20049;-81
2023/07/01 12:02:29;;;;;;;0.20;0.20;;;19.60;99.90;;;;;;5028057;28;20442;-82
2023/07/01 12:04:55;;;;;;;0.20;0.20;;;19.60;99.90;;;;;;5050534;28;20044;-82
2023/07/01 12:07:21;;;;;;;0.20;0.20;;;19.60;99.90;;;;;;5051458;28;20045;-82
2023/07/01 12:09:47;;;;;;;0.20;0.20;;;19.80;99.90;;;;;;5034899;28;20052;-81
2023/07/01 12:12:16;;;;;;;0.20;0.20;;;19.80;99.90;;;;;;5033210;28;20091;-81
2023/07/01 12:14:43;;;;;;;0.20;0.20;;;19.90;99.90;;;;;;5032031;28;20048;-82
2023/07/01 12:17:28;;;;;;;0.20;0.20;;;20.10;99.90;;;;;;5032518;28;20409;-82
2023/07/01 12:19:54;;;;;;;0.20;0.20;;;20.10;99.90;;;;;;5038569;28;20041;-82
2023/07/01 12:22:19;;;;;;;0.20;0.20;;;20.10;99.90;;;;;;5051390;28;20559;-83
2023/07/01 12:24:53;;;;;;;0.20;0.20;;;20.10;99.90;;;;;;5033581;28;20561;-82
2023/07/01 12:27:18;;;;;;;0.20;0.20;;;20.10;99.90;;;;;;5030042;28;20051;-82
2023/07/01 12:29:44;;;;;;;0.20;0.20;;;20.20;99.90;;;;;;5032685;28;20052;-83
2023/07/01 12:32:10;;;;;;;0.20;0.20;;;20.20;99.90;;;;;;5043062;28;20440;-82
2023/07/01 12:34:36;;;;;;;0.20;0.20;;;20.30;99.90;;;;;;5048493;28;20067;-88
2023/07/01 12:37:02;;;;;;;0.20;0.20;;;20.40;99.90;;;;;;5045546;28;20052;-82
2023/07/01 12:39:30;;;;;;;0.20;0.20;;;20.50;99.90;;;;;;5047601;28;20045;-83
2023/07/01 12:41:58;;;;;;;0.20;0.20;;;20.70;99.90;;;;;;5046602;28;20041;-83
2023/07/01 12:44:24;;;;;;;0.20;0.20;;;20.90;99.90;;;;;;5036004;28;20914;-83
2023/07/01 12:46:50;;;;;;;0.20;0.20;;;21.00;99.90;;;;;;5042291;28;20504;-82
2023/07/01 12:49:16;;;;;;;0.20;0.20;;;21.10;99.90;;;;;;5042861;28;20077;-82
2023/07/01 12:51:43;;;;;;;0.20;0.20;;;21.20;99.90;;;;;;5046665;28;20337;-81